sensor_id;sensor_type;location;lat;lon;timestamp;P1;durP1;ratioP1;P2;durP2;ratioP2
46463;SDS011;32161;48.148;-1.554;2022-09-09T00:01:45;15.52;;;2.55;;
46463;SDS011;32161;48.148;-1.554;2022-09-09T00:04:23;18.60;;;2.95;;
46463;SDS011;32161;48.148;-1.554;2022-09-09T00:06:56;17.30;;;2.78;;
46463;SDS011;32161;48.148;-1.554;2022-09-09T00:09:33;18.77;;;2.85;;
46463;SDS011;32161;48.148;-1.554;2022-09-09T00:12:10;17.45;;;3.40;;
46463;SDS011;32161;48.148;-1.554;2022-09-09T00:17:18;12.60;;;2.63;;
46463;SDS011;32161;48.148;-1.554;2022-09-09T00:20:01;20.17;;;3.00;;
46463;SDS011;32161;48.148;-1.554;2022-09-09T00:22:37;12.48;;;2.65;;
46463;SDS011;32161;48.148;-1.554;2022-09-09T00:25:14;14.50;;;2.38;;
46463;SDS011;32161;48.148;-1.554;2022-09-09T00:27:49;14.73;;;3.25;;
46463;SDS011;32161;48.148;-1.554;2022-09-09T00:30:18;14.20;;;2.95;;
46463;SDS011;32161;48.148;-1.554;2022-09-09T00:32:49;13.15;;;2.42;;
46463;SDS011;32161;48.148;-1.554;2022-09-09T00:35:26;23.40;;;2.90;;
46463;SDS011;32161;48.148;-1.554;2022-09-09T00:38:00;16.42;;;2.90;;
46463;SDS011;32161;48.148;-1.554;2022-09-09T00:40:38;16.60;;;3.75;;
46463;SDS011;32161;48.148;-1.554;2022-09-09T00:43:24;12.13;;;2.50;;
46463;SDS011;32161;48.148;-1.554;2022-09-09T00:49:15;13.93;;;2.92;;
46463;SDS011;32161;48.148;-1.554;2022-09-09T00:51:59;19.25;;;3.80;;
46463;SDS011;32161;48.148;-1.554;2022-09-09T00:54:40;19.30;;;2.97;;
46463;SDS011;32161;48.148;-1.554;2022-09-09T00:57:22;14.32;;;3.13;;
46463;SDS011;32161;48.148;-1.554;2022-09-09T00:59:58;17.75;;;2.78;;
46463;SDS011;32161;48.148;-1.554;2022-09-09T01:02:46;13.30;;;2.80;;
46463;SDS011;32161;48.148;-1.554;2022-09-09T01:05:30;15.82;;;4.13;;
46463;SDS011;32161;48.148;-1.554;2022-09-09T01:08:11;12.63;;;2.70;;
46463;SDS011;32161;48.148;-1.554;2022-09-09T01:10:56;12.73;;;3.15;;
46463;SDS011;32161;48.148;-1.554;2022-09-09T01:13:28;20.23;;;2.92;;
46463;SDS011;32161;48.148;-1.554;2022-09-09T01:15:59;14.65;;;3.08;;
46463;SDS011;32161;48.148;-1.554;2022-09-09T01:18:31;8.63;;;1.98;;
46463;SDS011;32161;48.148;-1.554;2022-09-09T01:21:05;15.15;;;2.30;;
46463;SDS011;32161;48.148;-1.554;2022-09-09T01:23:57;18.35;;;2.75;;
46463;SDS011;32161;48.148;-1.554;2022-09-09T01:26:48;11.50;;;2.47;;
46463;SDS011;32161;48.148;-1.554;2022-09-09T01:29:18;14.45;;;2.75;;
46463;SDS011;32161;48.148;-1.554;2022-09-09T01:31:52;10.23;;;2.13;;
46463;SDS011;32161;48.148;-1.554;2022-09-09T01:34:23;13.90;;;2.53;;
46463;SDS011;32161;48.148;-1.554;2022-09-09T01:36:59;19.27;;;3.15;;
46463;SDS011;32161;48.148;-1.554;2022-09-09T01:39:31;16.77;;;3.25;;
46463;SDS011;32161;48.148;-1.554;2022-09-09T01:42:01;11.70;;;2.28;;
46463;SDS011;32161;48.148;-1.554;2022-09-09T01:44:30;17.35;;;2.97;;
46463;SDS011;32161;48.148;-1.554;2022-09-09T01:46:59;14.85;;;2.53;;
46463;SDS011;32161;48.148;-1.554;2022-09-09T01:49:26;10.07;;;2.30;;
46463;SDS011;32161;48.148;-1.554;2022-09-09T01:51:55;12.48;;;2.50;;
46463;SDS011;32161;48.148;-1.554;2022-09-09T01:54:24;12.93;;;2.95;;
46463;SDS011;32161;48.148;-1.554;2022-09-09T01:56:58;8.27;;;1.83;;
46463;SDS011;32161;48.148;-1.554;2022-09-09T02:02:19;17.03;;;2.60;;
46463;SDS011;32161;48.148;-1.554;2022-09-09T02:04:54;18.48;;;3.67;;
46463;SDS011;32161;48.148;-1.554;2022-09-09T02:07:32;13.90;;;2.80;;
46463;SDS011;32161;48.148;-1.554;2022-09-09T02:10:08;16.10;;;2.72;;
46463;SDS011;32161;48.148;-1.554;2022-09-09T02:12:43;10.88;;;2.30;;
46463;SDS011;32161;48.148;-1.554;2022-09-09T02:15:18;7.03;;;2.20;;
46463;SDS011;32161;48.148;-1.554;2022-09-09T02:17:54;17.33;;;3.47;;
46463;SDS011;32161;48.148;-1.554;2022-09-09T02:20:25;15.30;;;2.08;;
46463;SDS011;32161;48.148;-1.554;2022-09-09T02:22:54;16.30;;;3.10;;
46463;SDS011;32161;48.148;-1.554;2022-09-09T02:25:24;17.58;;;2.75;;
46463;SDS011;32161;48.148;-1.554;2022-09-09T02:27:57;10.68;;;2.22;;
46463;SDS011;32161;48.148;-1.554;2022-09-09T02:30:25;7.55;;;2.10;;
46463;SDS011;32161;48.148;-1.554;2022-09-09T02:32:59;11.88;;;2.40;;
46463;SDS011;32161;48.148;-1.554;2022-09-09T02:35:31;13.27;;;2.85;;
46463;SDS011;32161;48.148;-1.554;2022-09-09T02:38:03;12.82;;;2.60;;
46463;SDS011;32161;48.148;-1.554;2022-09-09T02:40:36;14.30;;;2.80;;
46463;SDS011;32161;48.148;-1.554;2022-09-09T02:43:05;13.15;;;2.17;;
46463;SDS011;32161;48.148;-1.554;2022-09-09T02:45:35;10.23;;;2.05;;
46463;SDS011;32161;48.148;-1.554;2022-09-09T02:48:09;10.77;;;2.13;;
46463;SDS011;32161;48.148;-1.554;2022-09-09T02:50:45;11.93;;;2.50;;
46463;SDS011;32161;48.148;-1.554;2022-09-09T02:53:22;10.25;;;1.95;;
46463;SDS011;32161;48.148;-1.554;2022-09-09T02:56:00;13.50;;;2.03;;
46463;SDS011;32161;48.148;-1.554;2022-09-09T02:58:36;15.63;;;2.80;;
46463;SDS011;32161;48.148;-1.554;2022-09-09T03:01:04;15.15;;;2.15;;
46463;SDS011;32161;48.148;-1.554;2022-09-09T03:03:33;13.13;;;2.83;;
46463;SDS011;32161;48.148;-1.554;2022-09-09T03:06:02;12.27;;;2.20;;
46463;SDS011;32161;48.148;-1.554;2022-09-09T03:08:30;13.90;;;2.25;;
46463;SDS011;32161;48.148;-1.554;2022-09-09T03:10:58;9.55;;;2.08;;
46463;SDS011;32161;48.148;-1.554;2022-09-09T03:13:27;12.00;;;2.63;;
46463;SDS011;32161;48.148;-1.554;2022-09-09T03:15:56;10.18;;;2.47;;
46463;SDS011;32161;48.148;-1.554;2022-09-09T03:18:25;12.80;;;2.50;;
46463;SDS011;32161;48.148;-1.554;2022-09-09T03:20:53;10.55;;;1.60;;
46463;SDS011;32161;48.148;-1.554;2022-09-09T03:23:20;9.07;;;1.55;;
46463;SDS011;32161;48.148;-1.554;2022-09-09T03:25:48;13.82;;;2.78;;
46463;SDS011;32161;48.148;-1.554;2022-09-09T03:28:17;4.55;;;1.50;;
46463;SDS011;32161;48.148;-1.554;2022-09-09T03:30:45;6.80;;;1.40;;
46463;SDS011;32161;48.148;-1.554;2022-09-09T03:33:15;11.77;;;1.83;;
46463;SDS011;32161;48.148;-1.554;2022-09-09T03:35:44;12.27;;;2.10;;
46463;SDS011;32161;48.148;-1.554;2022-09-09T03:38:13;11.55;;;2.88;;
46463;SDS011;32161;48.148;-1.554;2022-09-09T03:40:48;7.82;;;2.08;;
46463;SDS011;32161;48.148;-1.554;2022-09-09T03:43:20;12.48;;;2.28;;
46463;SDS011;32161;48.148;-1.554;2022-09-09T03:45:48;6.38;;;1.83;;
46463;SDS011;32161;48.148;-1.554;2022-09-09T03:48:18;9.68;;;1.48;;
46463;SDS011;32161;48.148;-1.554;2022-09-09T03:50:46;8.63;;;2.45;;
46463;SDS011;32161;48.148;-1.554;2022-09-09T03:53:16;8.57;;;1.83;;
46463;SDS011;32161;48.148;-1.554;2022-09-09T03:55:45;16.95;;;2.92;;
46463;SDS011;32161;48.148;-1.554;2022-09-09T03:58:14;7.85;;;1.50;;
46463;SDS011;32161;48.148;-1.554;2022-09-09T04:00:44;10.15;;;2.60;;
46463;SDS011;32161;48.148;-1.554;2022-09-09T04:03:22;10.45;;;2.00;;
46463;SDS011;32161;48.148;-1.554;2022-09-09T04:05:50;9.23;;;2.28;;
46463;SDS011;32161;48.148;-1.554;2022-09-09T04:08:19;14.40;;;1.70;;
46463;SDS011;32161;48.148;-1.554;2022-09-09T04:10:47;12.07;;;2.17;;
46463;SDS011;32161;48.148;-1.554;2022-09-09T04:13:16;6.25;;;1.83;;
46463;SDS011;32161;48.148;-1.554;2022-09-09T04:15:49;9.43;;;2.10;;
46463;SDS011;32161;48.148;-1.554;2022-09-09T04:18:18;10.95;;;2.13;;
46463;SDS011;32161;48.148;-1.554;2022-09-09T04:20:48;12.43;;;2.13;;
46463;SDS011;32161;48.148;-1.554;2022-09-09T04:23:17;8.18;;;1.42;;
46463;SDS011;32161;48.148;-1.554;2022-09-09T04:25:47;7.78;;;2.10;;
46463;SDS011;32161;48.148;-1.554;2022-09-09T04:28:16;16.38;;;2.10;;
46463;SDS011;32161;48.148;-1.554;2022-09-09T04:30:45;10.40;;;2.08;;
46463;SDS011;32161;48.148;-1.554;2022-09-09T04:33:13;10.52;;;2.20;;
46463;SDS011;32161;48.148;-1.554;2022-09-09T04:35:44;8.32;;;1.48;;
46463;SDS011;32161;48.148;-1.554;2022-09-09T04:38:15;11.23;;;2.15;;
46463;SDS011;32161;48.148;-1.554;2022-09-09T04:40:45;12.37;;;1.93;;
46463;SDS011;32161;48.148;-1.554;2022-09-09T04:43:14;14.52;;;3.22;;
46463;SDS011;32161;48.148;-1.554;2022-09-09T04:45:42;11.70;;;1.67;;
46463;SDS011;32161;48.148;-1.554;2022-09-09T04:48:10;11.60;;;2.17;;
46463;SDS011;32161;48.148;-1.554;2022-09-09T04:50:38;10.23;;;1.67;;
46463;SDS011;32161;48.148;-1.554;2022-09-09T04:53:06;4.50;;;1.38;;
46463;SDS011;32161;48.148;-1.554;2022-09-09T04:55:35;11.45;;;1.88;;
46463;SDS011;32161;48.148;-1.554;2022-09-09T04:58:03;10.48;;;1.95;;
46463;SDS011;32161;48.148;-1.554;2022-09-09T05:00:31;8.75;;;1.63;;
46463;SDS011;32161;48.148;-1.554;2022-09-09T05:03:02;9.48;;;2.78;;
46463;SDS011;32161;48.148;-1.554;2022-09-09T05:05:31;13.20;;;3.35;;
46463;SDS011;32161;48.148;-1.554;2022-09-09T05:08:03;11.25;;;2.05;;
46463;SDS011;32161;48.148;-1.554;2022-09-09T05:10:32;15.20;;;2.45;;
46463;SDS011;32161;48.148;-1.554;2022-09-09T05:13:04;6.80;;;1.45;;
46463;SDS011;32161;48.148;-1.554;2022-09-09T05:15:32;7.63;;;1.60;;
46463;SDS011;32161;48.148;-1.554;2022-09-09T05:18:01;11.07;;;2.08;;
46463;SDS011;32161;48.148;-1.554;2022-09-09T05:20:29;10.85;;;2.00;;
46463;SDS011;32161;48.148;-1.554;2022-09-09T05:22:57;7.07;;;1.85;;
46463;SDS011;32161;48.148;-1.554;2022-09-09T05:25:25;6.75;;;1.38;;
46463;SDS011;32161;48.148;-1.554;2022-09-09T05:27:52;7.57;;;2.13;;
46463;SDS011;32161;48.148;-1.554;2022-09-09T05:30:21;10.70;;;2.00;;
46463;SDS011;32161;48.148;-1.554;2022-09-09T05:35:18;9.77;;;2.00;;
46463;SDS011;32161;48.148;-1.554;2022-09-09T05:37:46;7.72;;;2.20;;
46463;SDS011;32161;48.148;-1.554;2022-09-09T05:40:14;16.92;;;2.30;;
46463;SDS011;32161;48.148;-1.554;2022-09-09T05:42:41;17.75;;;3.05;;
46463;SDS011;32161;48.148;-1.554;2022-09-09T05:45:09;8.15;;;1.88;;
46463;SDS011;32161;48.148;-1.554;2022-09-09T05:47:38;12.50;;;2.20;;
46463;SDS011;32161;48.148;-1.554;2022-09-09T05:50:06;11.57;;;2.20;;
46463;SDS011;32161;48.148;-1.554;2022-09-09T05:52:34;10.98;;;1.83;;
46463;SDS011;32161;48.148;-1.554;2022-09-09T05:55:02;10.23;;;1.98;;
46463;SDS011;32161;48.148;-1.554;2022-09-09T05:57:31;18.08;;;2.30;;
46463;SDS011;32161;48.148;-1.554;2022-09-09T05:59:59;12.95;;;2.72;;
46463;SDS011;32161;48.148;-1.554;2022-09-09T06:02:27;10.85;;;1.77;;
46463;SDS011;32161;48.148;-1.554;2022-09-09T06:04:56;10.10;;;2.00;;
46463;SDS011;32161;48.148;-1.554;2022-09-09T06:07:24;8.18;;;1.90;;
46463;SDS011;32161;48.148;-1.554;2022-09-09T06:09:51;10.73;;;2.28;;
46463;SDS011;32161;48.148;-1.554;2022-09-09T06:12:20;15.52;;;2.63;;
46463;SDS011;32161;48.148;-1.554;2022-09-09T06:14:47;11.70;;;1.85;;
46463;SDS011;32161;48.148;-1.554;2022-09-09T06:17:16;18.05;;;2.45;;
46463;SDS011;32161;48.148;-1.554;2022-09-09T06:19:44;9.27;;;1.75;;
46463;SDS011;32161;48.148;-1.554;2022-09-09T06:22:13;9.60;;;2.33;;
46463;SDS011;32161;48.148;-1.554;2022-09-09T06:24:41;12.10;;;3.10;;
46463;SDS011;32161;48.148;-1.554;2022-09-09T06:27:10;11.38;;;2.95;;
46463;SDS011;32161;48.148;-1.554;2022-09-09T06:29:38;16.17;;;2.42;;
46463;SDS011;32161;48.148;-1.554;2022-09-09T06:32:06;12.00;;;2.85;;
46463;SDS011;32161;48.148;-1.554;2022-09-09T06:34:34;11.43;;;2.17;;
46463;SDS011;32161;48.148;-1.554;2022-09-09T06:37:02;11.40;;;2.35;;
46463;SDS011;32161;48.148;-1.554;2022-09-09T06:39:33;12.80;;;2.25;;
46463;SDS011;32161;48.148;-1.554;2022-09-09T06:42:00;9.05;;;2.13;;
46463;SDS011;32161;48.148;-1.554;2022-09-09T06:44:29;20.45;;;2.67;;
46463;SDS011;32161;48.148;-1.554;2022-09-09T06:46:57;8.13;;;2.50;;
46463;SDS011;32161;48.148;-1.554;2022-09-09T06:49:24;13.10;;;3.38;;
46463;SDS011;32161;48.148;-1.554;2022-09-09T06:51:52;13.30;;;2.35;;
46463;SDS011;32161;48.148;-1.554;2022-09-09T06:54:20;16.00;;;2.58;;
46463;SDS011;32161;48.148;-1.554;2022-09-09T06:56:50;15.57;;;3.15;;
46463;SDS011;32161;48.148;-1.554;2022-09-09T06:59:17;15.65;;;2.67;;
46463;SDS011;32161;48.148;-1.554;2022-09-09T07:01:45;12.20;;;2.38;;
46463;SDS011;32161;48.148;-1.554;2022-09-09T07:04:13;13.30;;;2.33;;
46463;SDS011;32161;48.148;-1.554;2022-09-09T07:06:41;22.83;;;2.88;;
46463;SDS011;32161;48.148;-1.554;2022-09-09T07:09:12;20.23;;;2.17;;
46463;SDS011;32161;48.148;-1.554;2022-09-09T07:11:42;13.80;;;2.20;;
46463;SDS011;32161;48.148;-1.554;2022-09-09T07:14:12;13.85;;;2.03;;
46463;SDS011;32161;48.148;-1.554;2022-09-09T07:16:41;9.68;;;2.58;;
46463;SDS011;32161;48.148;-1.554;2022-09-09T07:19:09;10.75;;;2.58;;
46463;SDS011;32161;48.148;-1.554;2022-09-09T07:21:39;15.50;;;2.85;;
46463;SDS011;32161;48.148;-1.554;2022-09-09T07:24:07;14.80;;;2.38;;
46463;SDS011;32161;48.148;-1.554;2022-09-09T07:26:36;11.65;;;2.90;;
46463;SDS011;32161;48.148;-1.554;2022-09-09T07:29:05;16.00;;;2.15;;
46463;SDS011;32161;48.148;-1.554;2022-09-09T07:31:35;10.85;;;2.40;;
46463;SDS011;32161;48.148;-1.554;2022-09-09T07:34:05;10.13;;;2.20;;
46463;SDS011;32161;48.148;-1.554;2022-09-09T07:36:33;10.70;;;2.33;;
46463;SDS011;32161;48.148;-1.554;2022-09-09T07:39:03;11.82;;;1.77;;
46463;SDS011;32161;48.148;-1.554;2022-09-09T07:41:34;11.43;;;2.80;;
46463;SDS011;32161;48.148;-1.554;2022-09-09T07:44:05;15.50;;;2.13;;
46463;SDS011;32161;48.148;-1.554;2022-09-09T07:46:37;9.95;;;1.90;;
46463;SDS011;32161;48.148;-1.554;2022-09-09T07:49:06;9.13;;;2.92;;
46463;SDS011;32161;48.148;-1.554;2022-09-09T07:51:35;9.00;;;1.65;;
46463;SDS011;32161;48.148;-1.554;2022-09-09T07:54:06;8.57;;;2.05;;
46463;SDS011;32161;48.148;-1.554;2022-09-09T07:56:36;6.60;;;1.63;;
46463;SDS011;32161;48.148;-1.554;2022-09-09T07:59:05;7.07;;;1.85;;
46463;SDS011;32161;48.148;-1.554;2022-09-09T08:01:35;13.38;;;1.75;;
46463;SDS011;32161;48.148;-1.554;2022-09-09T08:04:08;13.70;;;2.00;;
46463;SDS011;32161;48.148;-1.554;2022-09-09T08:06:41;10.32;;;1.83;;
46463;SDS011;32161;48.148;-1.554;2022-09-09T08:09:12;11.23;;;2.03;;
46463;SDS011;32161;48.148;-1.554;2022-09-09T08:11:41;9.57;;;2.10;;
46463;SDS011;32161;48.148;-1.554;2022-09-09T08:14:09;9.60;;;2.08;;
46463;SDS011;32161;48.148;-1.554;2022-09-09T08:16:40;8.13;;;2.22;;
46463;SDS011;32161;48.148;-1.554;2022-09-09T08:19:10;11.50;;;1.85;;
46463;SDS011;32161;48.148;-1.554;2022-09-09T08:21:38;14.30;;;1.88;;
46463;SDS011;32161;48.148;-1.554;2022-09-09T08:24:07;10.98;;;2.83;;
46463;SDS011;32161;48.148;-1.554;2022-09-09T08:26:37;15.73;;;3.53;;
46463;SDS011;32161;48.148;-1.554;2022-09-09T08:29:08;12.38;;;5.13;;
46463;SDS011;32161;48.148;-1.554;2022-09-09T08:31:40;62.63;;;34.63;;
46463;SDS011;32161;48.148;-1.554;2022-09-09T08:34:09;29.77;;;14.43;;
46463;SDS011;32161;48.148;-1.554;2022-09-09T08:36:38;22.60;;;9.60;;
46463;SDS011;32161;48.148;-1.554;2022-09-09T08:39:08;8.07;;;2.43;;
46463;SDS011;32161;48.148;-1.554;2022-09-09T08:44:38;13.57;;;3.17;;
46463;SDS011;32161;48.148;-1.554;2022-09-09T08:47:21;8.10;;;1.75;;
46463;SDS011;32161;48.148;-1.554;2022-09-09T08:50:03;12.63;;;2.78;;
46463;SDS011;32161;48.148;-1.554;2022-09-09T08:52:45;11.05;;;2.28;;
46463;SDS011;32161;48.148;-1.554;2022-09-09T08:55:27;13.85;;;3.33;;
46463;SDS011;32161;48.148;-1.554;2022-09-09T08:58:05;11.80;;;2.88;;
46463;SDS011;32161;48.148;-1.554;2022-09-09T09:00:43;7.05;;;2.08;;
46463;SDS011;32161;48.148;-1.554;2022-09-09T09:03:41;8.20;;;1.85;;
46463;SDS011;32161;48.148;-1.554;2022-09-09T09:06:22;10.18;;;1.73;;
46463;SDS011;32161;48.148;-1.554;2022-09-09T09:09:10;9.38;;;2.42;;
46463;SDS011;32161;48.148;-1.554;2022-09-09T09:11:49;10.07;;;1.70;;
46463;SDS011;32161;48.148;-1.554;2022-09-09T09:14:21;13.15;;;2.80;;
46463;SDS011;32161;48.148;-1.554;2022-09-09T09:16:52;10.07;;;2.13;;
46463;SDS011;32161;48.148;-1.554;2022-09-09T09:19:25;14.05;;;2.15;;
46463;SDS011;32161;48.148;-1.554;2022-09-09T09:21:58;9.10;;;1.75;;
46463;SDS011;32161;48.148;-1.554;2022-09-09T09:24:34;9.48;;;2.40;;
46463;SDS011;32161;48.148;-1.554;2022-09-09T09:27:11;10.30;;;1.58;;
46463;SDS011;32161;48.148;-1.554;2022-09-09T09:29:42;6.63;;;2.03;;
46463;SDS011;32161;48.148;-1.554;2022-09-09T09:32:16;8.55;;;1.52;;
46463;SDS011;32161;48.148;-1.554;2022-09-09T09:34:49;9.77;;;1.90;;
46463;SDS011;32161;48.148;-1.554;2022-09-09T09:37:23;8.35;;;1.70;;
46463;SDS011;32161;48.148;-1.554;2022-09-09T09:40:07;9.02;;;1.50;;
46463;SDS011;32161;48.148;-1.554;2022-09-09T09:42:36;9.07;;;1.70;;
46463;SDS011;32161;48.148;-1.554;2022-09-09T09:45:08;8.93;;;2.58;;
46463;SDS011;32161;48.148;-1.554;2022-09-09T09:47:57;11.43;;;1.95;;
46463;SDS011;32161;48.148;-1.554;2022-09-09T09:50:28;10.88;;;2.70;;
46463;SDS011;32161;48.148;-1.554;2022-09-09T09:52:58;15.60;;;2.72;;
46463;SDS011;32161;48.148;-1.554;2022-09-09T09:55:29;10.73;;;1.95;;
46463;SDS011;32161;48.148;-1.554;2022-09-09T09:58:00;6.25;;;1.13;;
46463;SDS011;32161;48.148;-1.554;2022-09-09T10:00:30;4.80;;;1.40;;
46463;SDS011;32161;48.148;-1.554;2022-09-09T10:02:59;5.45;;;1.88;;
46463;SDS011;32161;48.148;-1.554;2022-09-09T10:05:29;7.07;;;1.85;;
46463;SDS011;32161;48.148;-1.554;2022-09-09T10:08:01;10.35;;;1.90;;
46463;SDS011;32161;48.148;-1.554;2022-09-09T10:10:36;5.57;;;1.30;;
46463;SDS011;32161;48.148;-1.554;2022-09-09T10:13:20;8.90;;;1.35;;
46463;SDS011;32161;48.148;-1.554;2022-09-09T10:15:58;5.45;;;1.60;;
46463;SDS011;32161;48.148;-1.554;2022-09-09T10:18:44;6.28;;;1.42;;
46463;SDS011;32161;48.148;-1.554;2022-09-09T10:21:29;5.00;;;0.88;;
46463;SDS011;32161;48.148;-1.554;2022-09-09T10:24:56;9.60;;;1.98;;
46463;SDS011;32161;48.148;-1.554;2022-09-09T10:28:02;9.30;;;1.90;;
46463;SDS011;32161;48.148;-1.554;2022-09-09T10:30:55;10.65;;;1.95;;
46463;SDS011;32161;48.148;-1.554;2022-09-09T10:33:39;8.52;;;1.90;;
46463;SDS011;32161;48.148;-1.554;2022-09-09T10:36:17;12.15;;;2.15;;
46463;SDS011;32161;48.148;-1.554;2022-09-09T10:38:50;8.73;;;1.83;;
46463;SDS011;32161;48.148;-1.554;2022-09-09T10:41:30;4.80;;;1.40;;
46463;SDS011;32161;48.148;-1.554;2022-09-09T10:44:18;7.03;;;1.65;;
46463;SDS011;32161;48.148;-1.554;2022-09-09T10:47:09;6.30;;;1.60;;
46463;SDS011;32161;48.148;-1.554;2022-09-09T10:49:59;7.80;;;1.70;;
46463;SDS011;32161;48.148;-1.554;2022-09-09T10:52:46;8.82;;;1.33;;
46463;SDS011;32161;48.148;-1.554;2022-09-09T10:55:23;3.70;;;1.35;;
46463;SDS011;32161;48.148;-1.554;2022-09-09T10:57:55;4.22;;;1.27;;
46463;SDS011;32161;48.148;-1.554;2022-09-09T11:00:27;8.18;;;1.20;;
46463;SDS011;32161;48.148;-1.554;2022-09-09T11:03:05;4.20;;;1.15;;
46463;SDS011;32161;48.148;-1.554;2022-09-09T11:05:35;7.47;;;1.30;;
46463;SDS011;32161;48.148;-1.554;2022-09-09T11:08:09;6.03;;;1.30;;
46463;SDS011;32161;48.148;-1.554;2022-09-09T11:10:44;7.95;;;2.00;;
46463;SDS011;32161;48.148;-1.554;2022-09-09T11:13:21;4.45;;;1.42;;
46463;SDS011;32161;48.148;-1.554;2022-09-09T11:15:58;4.93;;;1.25;;
46463;SDS011;32161;48.148;-1.554;2022-09-09T11:18:31;5.57;;;1.52;;
46463;SDS011;32161;48.148;-1.554;2022-09-09T11:21:12;5.40;;;1.35;;
46463;SDS011;32161;48.148;-1.554;2022-09-09T11:23:50;4.45;;;1.38;;
46463;SDS011;32161;48.148;-1.554;2022-09-09T11:26:28;5.30;;;1.35;;
46463;SDS011;32161;48.148;-1.554;2022-09-09T11:29:09;4.75;;;1.23;;
46463;SDS011;32161;48.148;-1.554;2022-09-09T11:32:17;6.25;;;1.20;;
46463;SDS011;32161;48.148;-1.554;2022-09-09T11:35:01;5.32;;;1.17;;
46463;SDS011;32161;48.148;-1.554;2022-09-09T11:37:53;3.10;;;0.82;;
46463;SDS011;32161;48.148;-1.554;2022-09-09T11:40:56;6.07;;;1.35;;
46463;SDS011;32161;48.148;-1.554;2022-09-09T11:43:29;2.78;;;0.77;;
46463;SDS011;32161;48.148;-1.554;2022-09-09T11:46:00;5.00;;;0.90;;
46463;SDS011;32161;48.148;-1.554;2022-09-09T11:48:31;4.32;;;1.10;;
46463;SDS011;32161;48.148;-1.554;2022-09-09T11:51:04;4.95;;;1.00;;
46463;SDS011;32161;48.148;-1.554;2022-09-09T11:53:34;2.58;;;1.10;;
46463;SDS011;32161;48.148;-1.554;2022-09-09T11:56:22;6.25;;;1.27;;
46463;SDS011;32161;48.148;-1.554;2022-09-09T11:58:55;8.20;;;1.50;;
46463;SDS011;32161;48.148;-1.554;2022-09-09T12:01:29;8.73;;;1.52;;
46463;SDS011;32161;48.148;-1.554;2022-09-09T12:04:21;4.47;;;0.88;;
46463;SDS011;32161;48.148;-1.554;2022-09-09T12:07:03;4.68;;;0.98;;
46463;SDS011;32161;48.148;-1.554;2022-09-09T12:09:50;2.55;;;0.77;;
46463;SDS011;32161;48.148;-1.554;2022-09-09T12:12:23;3.47;;;0.90;;
46463;SDS011;32161;48.148;-1.554;2022-09-09T12:14:58;4.93;;;1.08;;
46463;SDS011;32161;48.148;-1.554;2022-09-09T12:17:30;3.08;;;1.10;;
46463;SDS011;32161;48.148;-1.554;2022-09-09T12:20:10;5.45;;;1.52;;
46463;SDS011;32161;48.148;-1.554;2022-09-09T12:22:58;3.78;;;1.30;;
46463;SDS011;32161;48.148;-1.554;2022-09-09T12:26:05;3.13;;;0.75;;
46463;SDS011;32161;48.148;-1.554;2022-09-09T12:29:00;6.47;;;1.33;;
46463;SDS011;32161;48.148;-1.554;2022-09-09T12:31:41;4.88;;;0.90;;
46463;SDS011;32161;48.148;-1.554;2022-09-09T12:34:18;3.78;;;0.82;;
46463;SDS011;32161;48.148;-1.554;2022-09-09T12:37:03;1.67;;;0.60;;
46463;SDS011;32161;48.148;-1.554;2022-09-09T12:39:43;1.92;;;0.52;;
46463;SDS011;32161;48.148;-1.554;2022-09-09T12:42:17;2.88;;;0.98;;
46463;SDS011;32161;48.148;-1.554;2022-09-09T12:44:53;5.40;;;1.08;;
46463;SDS011;32161;48.148;-1.554;2022-09-09T12:47:24;4.43;;;1.20;;
46463;SDS011;32161;48.148;-1.554;2022-09-09T12:52:41;3.08;;;0.82;;
46463;SDS011;32161;48.148;-1.554;2022-09-09T12:55:15;2.15;;;0.88;;
46463;SDS011;32161;48.148;-1.554;2022-09-09T12:57:45;2.90;;;1.33;;
46463;SDS011;32161;48.148;-1.554;2022-09-09T13:00:16;5.60;;;1.05;;
46463;SDS011;32161;48.148;-1.554;2022-09-09T13:02:50;2.00;;;0.80;;
46463;SDS011;32161;48.148;-1.554;2022-09-09T13:05:21;4.25;;;1.45;;
46463;SDS011;32161;48.148;-1.554;2022-09-09T13:07:51;1.58;;;0.80;;
46463;SDS011;32161;48.148;-1.554;2022-09-09T13:10:28;4.70;;;1.13;;
46463;SDS011;32161;48.148;-1.554;2022-09-09T13:13:00;7.00;;;0.95;;
46463;SDS011;32161;48.148;-1.554;2022-09-09T13:15:28;4.30;;;1.23;;
46463;SDS011;32161;48.148;-1.554;2022-09-09T13:17:58;5.05;;;1.20;;
46463;SDS011;32161;48.148;-1.554;2022-09-09T13:20:36;4.38;;;0.85;;
46463;SDS011;32161;48.148;-1.554;2022-09-09T13:23:04;3.30;;;0.93;;
46463;SDS011;32161;48.148;-1.554;2022-09-09T13:25:38;4.85;;;1.83;;
46463;SDS011;32161;48.148;-1.554;2022-09-09T13:28:19;3.42;;;0.75;;
46463;SDS011;32161;48.148;-1.554;2022-09-09T13:30:55;4.15;;;1.25;;
46463;SDS011;32161;48.148;-1.554;2022-09-09T13:33:36;4.53;;;1.13;;
46463;SDS011;32161;48.148;-1.554;2022-09-09T13:36:04;5.80;;;1.30;;
46463;SDS011;32161;48.148;-1.554;2022-09-09T13:38:36;4.57;;;1.05;;
46463;SDS011;32161;48.148;-1.554;2022-09-09T13:41:07;4.35;;;1.20;;
46463;SDS011;32161;48.148;-1.554;2022-09-09T13:43:38;4.25;;;0.82;;
46463;SDS011;32161;48.148;-1.554;2022-09-09T13:46:24;3.25;;;1.25;;
46463;SDS011;32161;48.148;-1.554;2022-09-09T13:49:01;5.10;;;1.30;;
46463;SDS011;32161;48.148;-1.554;2022-09-09T13:51:46;6.00;;;1.00;;
46463;SDS011;32161;48.148;-1.554;2022-09-09T13:54:16;3.63;;;0.95;;
46463;SDS011;32161;48.148;-1.554;2022-09-09T13:56:48;2.55;;;1.25;;
46463;SDS011;32161;48.148;-1.554;2022-09-09T13:59:16;3.42;;;0.65;;
46463;SDS011;32161;48.148;-1.554;2022-09-09T14:01:46;2.45;;;1.13;;
46463;SDS011;32161;48.148;-1.554;2022-09-09T14:04:19;3.20;;;1.05;;
46463;SDS011;32161;48.148;-1.554;2022-09-09T14:06:47;3.42;;;1.52;;
46463;SDS011;32161;48.148;-1.554;2022-09-09T14:09:16;3.50;;;1.13;;
46463;SDS011;32161;48.148;-1.554;2022-09-09T14:11:45;3.63;;;0.63;;
46463;SDS011;32161;48.148;-1.554;2022-09-09T14:14:12;2.33;;;1.08;;
46463;SDS011;32161;48.148;-1.554;2022-09-09T14:16:40;2.90;;;0.90;;
46463;SDS011;32161;48.148;-1.554;2022-09-09T14:19:08;1.05;;;0.80;;
46463;SDS011;32161;48.148;-1.554;2022-09-09T14:21:37;3.28;;;0.90;;
46463;SDS011;32161;48.148;-1.554;2022-09-09T14:24:04;1.63;;;0.60;;
46463;SDS011;32161;48.148;-1.554;2022-09-09T14:26:32;1.40;;;0.93;;
46463;SDS011;32161;48.148;-1.554;2022-09-09T14:29:00;1.23;;;0.60;;
46463;SDS011;32161;48.148;-1.554;2022-09-09T14:31:27;2.90;;;0.63;;
46463;SDS011;32161;48.148;-1.554;2022-09-09T14:33:55;1.05;;;0.50;;
46463;SDS011;32161;48.148;-1.554;2022-09-09T14:36:24;2.97;;;0.95;;
46463;SDS011;32161;48.148;-1.554;2022-09-09T14:38:53;3.25;;;0.70;;
46463;SDS011;32161;48.148;-1.554;2022-09-09T14:41:20;2.67;;;0.75;;
46463;SDS011;32161;48.148;-1.554;2022-09-09T14:43:48;2.28;;;0.85;;
46463;SDS011;32161;48.148;-1.554;2022-09-09T14:46:18;2.83;;;1.02;;
46463;SDS011;32161;48.148;-1.554;2022-09-09T14:48:48;0.63;;;0.50;;
46463;SDS011;32161;48.148;-1.554;2022-09-09T14:51:16;1.38;;;0.98;;
46463;SDS011;32161;48.148;-1.554;2022-09-09T14:56:20;1.25;;;0.60;;
46463;SDS011;32161;48.148;-1.554;2022-09-09T14:58:50;3.08;;;0.77;;
46463;SDS011;32161;48.148;-1.554;2022-09-09T15:01:19;1.73;;;0.50;;
46463;SDS011;32161;48.148;-1.554;2022-09-09T15:03:52;2.05;;;0.88;;
46463;SDS011;32161;48.148;-1.554;2022-09-09T15:06:21;1.15;;;0.30;;
46463;SDS011;32161;48.148;-1.554;2022-09-09T15:08:50;2.97;;;0.60;;
46463;SDS011;32161;48.148;-1.554;2022-09-09T15:11:21;1.80;;;0.40;;
46463;SDS011;32161;48.148;-1.554;2022-09-09T15:13:50;1.38;;;0.68;;
46463;SDS011;32161;48.148;-1.554;2022-09-09T15:16:20;3.90;;;0.68;;
46463;SDS011;32161;48.148;-1.554;2022-09-09T15:18:50;2.58;;;0.68;;
46463;SDS011;32161;48.148;-1.554;2022-09-09T15:21:20;5.45;;;0.60;;
46463;SDS011;32161;48.148;-1.554;2022-09-09T15:23:50;1.65;;;0.77;;